sensor_id;sensor_type;location;lat;lon;timestamp;temperature;humidity
30381;DHT22;17169;50.966;11.038;2023-03-23T00:00:31;14.80;92.80
30381;DHT22;17169;50.966;11.038;2023-03-23T00:03:34;14.80;92.90
30381;DHT22;17169;50.966;11.038;2023-03-23T00:06:36;14.80;92.90
30381;DHT22;17169;50.966;11.038;2023-03-23T00:09:38;14.70;92.90
30381;DHT22;17169;50.966;11.038;2023-03-23T00:12:43;14.70;93.00
30381;DHT22;17169;50.966;11.038;2023-03-23T00:15:50;14.80;93.10
30381;DHT22;17169;50.966;11.038;2023-03-23T00:18:54;14.70;93.00
30381;DHT22;17169;50.966;11.038;2023-03-23T00:21:56;14.70;93.10
30381;DHT22;17169;50.966;11.038;2023-03-23T00:25:01;14.70;93.20
30381;DHT22;17169;50.966;11.038;2023-03-23T00:28:05;14.70;93.30
30381;DHT22;17169;50.966;11.038;2023-03-23T00:31:09;14.60;93.50
30381;DHT22;17169;50.966;11.038;2023-03-23T00:34:11;14.60;93.40
30381;DHT22;17169;50.966;11.038;2023-03-23T00:37:14;14.60;93.50
30381;DHT22;17169;50.966;11.038;2023-03-23T00:40:18;14.60;93.60
30381;DHT22;17169;50.966;11.038;2023-03-23T00:43:21;14.60;93.70
30381;DHT22;17169;50.966;11.038;2023-03-23T00:46:26;14.50;93.50
30381;DHT22;17169;50.966;11.038;2023-03-23T00:49:29;14.50;93.70
30381;DHT22;17169;50.966;11.038;2023-03-23T00:52:35;14.50;93.50
30381;DHT22;17169;50.966;11.038;2023-03-23T00:55:39;14.50;93.50
30381;DHT22;17169;50.966;11.038;2023-03-23T00:58:43;14.50;93.60
30381;DHT22;17169;50.966;11.038;2023-03-23T01:01:46;14.40;93.50
30381;DHT22;17169;50.966;11.038;2023-03-23T01:04:48;14.50;93.60
30381;DHT22;17169;50.966;11.038;2023-03-23T01:07:53;14.40;93.50
30381;DHT22;17169;50.966;11.038;2023-03-23T01:11:03;14.40;93.50
30381;DHT22;17169;50.966;11.038;2023-03-23T01:14:07;14.40;93.70
30381;DHT22;17169;50.966;11.038;2023-03-23T01:17:09;14.40;93.60
30381;DHT22;17169;50.966;11.038;2023-03-23T01:20:13;14.30;93.60
30381;DHT22;17169;50.966;11.038;2023-03-23T01:23:16;14.40;93.70
30381;DHT22;17169;50.966;11.038;2023-03-23T01:26:20;14.40;93.60
30381;DHT22;17169;50.966;11.038;2023-03-23T01:29:24;14.40;93.60
30381;DHT22;17169;50.966;11.038;2023-03-23T01:32:26;14.40;93.70
30381;DHT22;17169;50.966;11.038;2023-03-23T01:35:29;14.40;93.70
30381;DHT22;17169;50.966;11.038;2023-03-23T01:38:31;14.30;93.70
30381;DHT22;17169;50.966;11.038;2023-03-23T01:41:34;14.30;93.80
30381;DHT22;17169;50.966;11.038;2023-03-23T01:48:31;14.40;93.90
30381;DHT22;17169;50.966;11.038;2023-03-23T01:51:36;14.40;94.00
30381;DHT22;17169;50.966;11.038;2023-03-23T01:54:40;14.40;94.10
30381;DHT22;17169;50.966;11.038;2023-03-23T01:57:46;14.40;94.20
30381;DHT22;17169;50.966;11.038;2023-03-23T02:00:49;14.40;94.20
30381;DHT22;17169;50.966;11.038;2023-03-23T02:03:55;14.30;94.30
30381;DHT22;17169;50.966;11.038;2023-03-23T02:06:59;14.40;94.40
30381;DHT22;17169;50.966;11.038;2023-03-23T02:10:03;14.40;94.50
30381;DHT22;17169;50.966;11.038;2023-03-23T02:13:08;14.30;94.60
30381;DHT22;17169;50.966;11.038;2023-03-23T02:16:18;14.40;94.60
30381;DHT22;17169;50.966;11.038;2023-03-23T02:19:48;14.40;94.70
30381;DHT22;17169;50.966;11.038;2023-03-23T02:23:17;14.40;94.80
30381;DHT22;17169;50.966;11.038;2023-03-23T02:26:34;14.40;94.90
30381;DHT22;17169;50.966;11.038;2023-03-23T02:30:09;14.40;94.90
30381;DHT22;17169;50.966;11.038;2023-03-23T02:33:37;14.40;94.90
30381;DHT22;17169;50.966;11.038;2023-03-23T02:36:44;14.40;95.00
30381;DHT22;17169;50.966;11.038;2023-03-23T02:39:50;14.40;94.90
30381;DHT22;17169;50.966;11.038;2023-03-23T02:42:56;14.40;94.80
30381;DHT22;17169;50.966;11.038;2023-03-23T02:46:00;14.40;94.70
30381;DHT22;17169;50.966;11.038;2023-03-23T02:49:06;14.40;94.80
30381;DHT22;17169;50.966;11.038;2023-03-23T02:52:12;14.40;94.70
30381;DHT22;17169;50.966;11.038;2023-03-23T02:55:17;14.40;94.80
30381;DHT22;17169;50.966;11.038;2023-03-23T02:58:21;14.40;94.80
30381;DHT22;17169;50.966;11.038;2023-03-23T03:01:48;14.50;94.80
30381;DHT22;17169;50.966;11.038;2023-03-23T03:04:58;14.50;94.80
30381;DHT22;17169;50.966;11.038;2023-03-23T03:08:13;14.50;94.90
30381;DHT22;17169;50.966;11.038;2023-03-23T03:11:19;14.50;94.90
30381;DHT22;17169;50.966;11.038;2023-03-23T03:14:26;14.50;95.00
30381;DHT22;17169;50.966;11.038;2023-03-23T03:17:31;14.50;95.10
30381;DHT22;17169;50.966;11.038;2023-03-23T03:20:39;14.50;95.20
30381;DHT22;17169;50.966;11.038;2023-03-23T03:23:43;14.50;95.30
30381;DHT22;17169;50.966;11.038;2023-03-23T03:26:49;14.50;95.30
30381;DHT22;17169;50.966;11.038;2023-03-23T03:29:55;14.50;95.20
30381;DHT22;17169;50.966;11.038;2023-03-23T03:32:59;14.50;95.30
30381;DHT22;17169;50.966;11.038;2023-03-23T03:36:06;14.40;95.20
30381;DHT22;17169;50.966;11.038;2023-03-23T03:39:10;14.40;95.40
30381;DHT22;17169;50.966;11.038;2023-03-23T03:42:13;14.40;95.20
30381;DHT22;17169;50.966;11.038;2023-03-23T03:45:18;14.50;95.20
30381;DHT22;17169;50.966;11.038;2023-03-23T03:48:20;14.40;95.30
30381;DHT22;17169;50.966;11.038;2023-03-23T03:51:25;14.40;95.30
30381;DHT22;17169;50.966;11.038;2023-03-23T03:54:28;14.40;95.40
30381;DHT22;17169;50.966;11.038;2023-03-23T03:57:32;14.40;95.40
30381;DHT22;17169;50.966;11.038;2023-03-23T04:00:34;14.40;95.50
30381;DHT22;17169;50.966;11.038;2023-03-23T04:03:37;14.40;95.50
30381;DHT22;17169;50.966;11.038;2023-03-23T04:06:41;14.40;95.40
30381;DHT22;17169;50.966;11.038;2023-03-23T04:09:43;14.40;95.40
30381;DHT22;17169;50.966;11.038;2023-03-23T04:12:47;14.30;95.40
30381;DHT22;17169;50.966;11.038;2023-03-23T04:15:50;14.30;95.50
30381;DHT22;17169;50.966;11.038;2023-03-23T04:18:52;14.40;95.50
30381;DHT22;17169;50.966;11.038;2023-03-23T04:21:58;14.30;95.50
30381;DHT22;17169;50.966;11.038;2023-03-23T04:25:01;14.30;95.60
30381;DHT22;17169;50.966;11.038;2023-03-23T04:28:07;14.40;95.60
30381;DHT22;17169;50.966;11.038;2023-03-23T04:31:11;14.40;95.60
30381;DHT22;17169;50.966;11.038;2023-03-23T04:34:13;14.30;95.60
30381;DHT22;17169;50.966;11.038;2023-03-23T04:37:17;14.30;95.70
30381;DHT22;17169;50.966;11.038;2023-03-23T04:40:20;14.40;95.70
30381;DHT22;17169;50.966;11.038;2023-03-23T04:43:23;14.40;95.70
30381;DHT22;17169;50.966;11.038;2023-03-23T04:46:26;14.30;95.80
30381;DHT22;17169;50.966;11.038;2023-03-23T04:49:29;14.30;95.70
30381;DHT22;17169;50.966;11.038;2023-03-23T04:52:33;14.30;96.00
30381;DHT22;17169;50.966;11.038;2023-03-23T04:55:38;14.30;96.00
30381;DHT22;17169;50.966;11.038;2023-03-23T04:58:42;14.30;96.10
30381;DHT22;17169;50.966;11.038;2023-03-23T05:01:44;14.20;96.10
30381;DHT22;17169;50.966;11.038;2023-03-23T05:04:47;14.20;96.20
30381;DHT22;17169;50.966;11.038;2023-03-23T05:07:51;14.20;96.30
30381;DHT22;17169;50.966;11.038;2023-03-23T05:10:55;14.20;96.70
30381;DHT22;17169;50.966;11.038;2023-03-23T05:13:57;14.10;97.30
30381;DHT22;17169;50.966;11.038;2023-03-23T05:16:59;14.10;97.70
30381;DHT22;17169;50.966;11.038;2023-03-23T05:20:03;14.00;97.90
30381;DHT22;17169;50.966;11.038;2023-03-23T05:23:09;14.00;97.90
30381;DHT22;17169;50.966;11.038;2023-03-23T05:26:12;13.90;98.00
30381;DHT22;17169;50.966;11.038;2023-03-23T05:29:14;13.90;98.10
30381;DHT22;17169;50.966;11.038;2023-03-23T05:32:17;13.80;98.10
30381;DHT22;17169;50.966;11.038;2023-03-23T05:35:20;13.80;98.40
30381;DHT22;17169;50.966;11.038;2023-03-23T05:38:23;13.70;98.60
30381;DHT22;17169;50.966;11.038;2023-03-23T05:41:26;13.70;98.60
30381;DHT22;17169;50.966;11.038;2023-03-23T05:44:29;13.70;98.80
30381;DHT22;17169;50.966;11.038;2023-03-23T05:47:31;13.60;99.20
30381;DHT22;17169;50.966;11.038;2023-03-23T05:50:33;13.60;99.50
30381;DHT22;17169;50.966;11.038;2023-03-23T05:53:37;13.50;99.90
30381;DHT22;17169;50.966;11.038;2023-03-23T05:56:40;13.50;99.90
30381;DHT22;17169;50.966;11.038;2023-03-23T05:59:43;13.50;99.90
30381;DHT22;17169;50.966;11.038;2023-03-23T06:02:47;13.40;99.90
30381;DHT22;17169;50.966;11.038;2023-03-23T06:05:49;13.30;99.90
30381;DHT22;17169;50.966;11.038;2023-03-23T06:08:54;13.30;99.90
30381;DHT22;17169;50.966;11.038;2023-03-23T06:11:57;13.20;99.90
30381;DHT22;17169;50.966;11.038;2023-03-23T06:15:00;13.20;99.90
30381;DHT22;17169;50.966;11.038;2023-03-23T06:18:03;13.20;99.90
30381;DHT22;17169;50.966;11.038;2023-03-23T06:21:06;13.10;99.90
30381;DHT22;17169;50.966;11.038;2023-03-23T06:24:10;13.10;99.90
30381;DHT22;17169;50.966;11.038;2023-03-23T06:27:13;13.10;99.90
30381;DHT22;17169;50.966;11.038;2023-03-23T06:30:17;13.10;99.90
30381;DHT22;17169;50.966;11.038;2023-03-23T06:33:20;13.10;99.90
30381;DHT22;17169;50.966;11.038;2023-03-23T06:36:22;13.10;99.90
30381;DHT22;17169;50.966;11.038;2023-03-23T06:39:29;13.10;99.90
30381;DHT22;17169;50.966;11.038;2023-03-23T06:42:31;13.10;99.90
30381;DHT22;17169;50.966;11.038;2023-03-23T06:45:34;13.10;99.90
30381;DHT22;17169;50.966;11.038;2023-03-23T06:48:36;13.20;99.90
30381;DHT22;17169;50.966;11.038;2023-03-23T06:51:39;13.20;99.90
30381;DHT22;17169;50.966;11.038;2023-03-23T06:54:43;13.20;99.90
30381;DHT22;17169;50.966;11.038;2023-03-23T06:57:47;13.20;99.90
30381;DHT22;17169;50.966;11.038;2023-03-23T07:00:53;13.10;99.90
30381;DHT22;17169;50.966;11.038;2023-03-23T07:03:57;13.10;99.90
30381;DHT22;17169;50.966;11.038;2023-03-23T07:07:00;13.10;99.90
30381;DHT22;17169;50.966;11.038;2023-03-23T07:10:05;13.20;99.90
30381;DHT22;17169;50.966;11.038;2023-03-23T07:13:09;13.20;99.90
30381;DHT22;17169;50.966;11.038;2023-03-23T07:16:12;13.20;99.90
30381;DHT22;17169;50.966;11.038;2023-03-23T07:19:14;13.20;99.90
30381;DHT22;17169;50.966;11.038;2023-03-23T07:22:17;13.20;99.90
30381;DHT22;17169;50.966;11.038;2023-03-23T07:25:20;13.20;99.90
30381;DHT22;17169;50.966;11.038;2023-03-23T07:28:23;13.30;99.90
30381;DHT22;17169;50.966;11.038;2023-03-23T07:31:26;13.30;99.90
30381;DHT22;17169;50.966;11.038;2023-03-23T07:34:28;13.40;99.90
30381;DHT22;17169;50.966;11.038;2023-03-23T07:37:30;13.40;99.90
30381;DHT22;17169;50.966;11.038;2023-03-23T07:40:35;13.40;99.90
30381;DHT22;17169;50.966;11.038;2023-03-23T07:43:37;13.40;99.90
30381;DHT22;17169;50.966;11.038;2023-03-23T07:46:40;13.50;99.90
30381;DHT22;17169;50.966;11.038;2023-03-23T07:49:43;13.60;99.90
30381;DHT22;17169;50.966;11.038;2023-03-23T07:52:45;13.70;99.90
30381;DHT22;17169;50.966;11.038;2023-03-23T07:55:49;13.80;99.90
30381;DHT22;17169;50.966;11.038;2023-03-23T07:58:51;13.90;99.90
30381;DHT22;17169;50.966;11.038;2023-03-23T08:01:53;14.00;99.90
30381;DHT22;17169;50.966;11.038;2023-03-23T08:04:56;14.10;99.90
30381;DHT22;17169;50.966;11.038;2023-03-23T08:08:01;14.40;99.90
30381;DHT22;17169;50.966;11.038;2023-03-23T08:11:06;14.50;99.90
30381;DHT22;17169;50.966;11.038;2023-03-23T08:14:08;14.60;99.90
30381;DHT22;17169;50.966;11.038;2023-03-23T08:17:11;14.70;99.90
30381;DHT22;17169;50.966;11.038;2023-03-23T08:20:13;14.80;99.90
30381;DHT22;17169;50.966;11.038;2023-03-23T08:23:17;14.80;99.90
30381;DHT22;17169;50.966;11.038;2023-03-23T08:26:20;14.80;99.90
30381;DHT22;17169;50.966;11.038;2023-03-23T08:29:23;14.90;99.90
30381;DHT22;17169;50.966;11.038;2023-03-23T08:32:26;14.90;99.90
30381;DHT22;17169;50.966;11.038;2023-03-23T08:35:28;15.00;99.90
30381;DHT22;17169;50.966;11.038;2023-03-23T08:38:31;15.10;99.90
30381;DHT22;17169;50.966;11.038;2023-03-23T08:41:35;15.10;99.70
30381;DHT22;17169;50.966;11.038;2023-03-23T08:44:38;15.10;99.70
30381;DHT22;17169;50.966;11.038;2023-03-23T08:47:41;15.20;99.60
30381;DHT22;17169;50.966;11.038;2023-03-23T08:50:44;15.20;99.40
30381;DHT22;17169;50.966;11.038;2023-03-23T08:53:46;15.20;99.40
30381;DHT22;17169;50.966;11.038;2023-03-23T08:56:50;15.10;99.10
30381;DHT22;17169;50.966;11.038;2023-03-23T08:59:52;15.20;98.80
30381;DHT22;17169;50.966;11.038;2023-03-23T09:02:58;15.20;98.70
30381;DHT22;17169;50.966;11.038;2023-03-23T09:06:03;15.20;98.60
30381;DHT22;17169;50.966;11.038;2023-03-23T09:09:06;15.20;98.70
30381;DHT22;17169;50.966;11.038;2023-03-23T09:12:11;15.20;98.30
30381;DHT22;17169;50.966;11.038;2023-03-23T09:15:16;15.20;98.30
30381;DHT22;17169;50.966;11.038;2023-03-23T09:18:19;15.10;97.90
30381;DHT22;17169;50.966;11.038;2023-03-23T09:21:23;15.20;97.70
30381;DHT22;17169;50.966;11.038;2023-03-23T09:24:26;15.20;97.60
30381;DHT22;17169;50.966;11.038;2023-03-23T09:27:29;15.30;97.80
30381;DHT22;17169;50.966;11.038;2023-03-23T09:30:34;15.30;98.10
30381;DHT22;17169;50.966;11.038;2023-03-23T09:33:37;15.20;98.00
30381;DHT22;17169;50.966;11.038;2023-03-23T09:36:39;15.10;97.70
30381;DHT22;17169;50.966;11.038;2023-03-23T09:39:42;15.10;97.90
30381;DHT22;17169;50.966;11.038;2023-03-23T09:43:04;15.20;98.10
30381;DHT22;17169;50.966;11.038;2023-03-23T09:46:21;15.20;98.30
30381;DHT22;17169;50.966;11.038;2023-03-23T09:49:28;15.20;98.40
30381;DHT22;17169;50.966;11.038;2023-03-23T09:52:39;15.20;98.70
30381;DHT22;17169;50.966;11.038;2023-03-23T09:55:43;15.30;98.80
30381;DHT22;17169;50.966;11.038;2023-03-23T09:58:55;15.30;98.80
30381;DHT22;17169;50.966;11.038;2023-03-23T10:02:12;15.30;98.70
30381;DHT22;17169;50.966;11.038;2023-03-23T10:05:27;15.20;98.70
30381;DHT22;17169;50.966;11.038;2023-03-23T10:08:32;15.30;98.60
30381;DHT22;17169;50.966;11.038;2023-03-23T10:11:44;15.40;98.60
30381;DHT22;17169;50.966;11.038;2023-03-23T10:15:04;15.50;98.50
30381;DHT22;17169;50.966;11.038;2023-03-23T10:18:15;15.70;98.40
30381;DHT22;17169;50.966;11.038;2023-03-23T10:21:21;15.70;98.30
30381;DHT22;17169;50.966;11.038;2023-03-23T10:24:30;15.70;98.40
30381;DHT22;17169;50.966;11.038;2023-03-23T10:27:42;15.80;98.20
30381;DHT22;17169;50.966;11.038;2023-03-23T10:30:52;15.80;97.90
30381;DHT22;17169;50.966;11.038;2023-03-23T10:33:59;15.70;98.30
30381;DHT22;17169;50.966;11.038;2023-03-23T10:37:09;15.70;98.20
30381;DHT22;17169;50.966;11.038;2023-03-23T10:40:16;15.80;98.20
30381;DHT22;17169;50.966;11.038;2023-03-23T10:43:20;15.80;97.90
30381;DHT22;17169;50.966;11.038;2023-03-23T10:46:33;15.80;97.70
30381;DHT22;17169;50.966;11.038;2023-03-23T10:49:40;15.80;97.80
30381;DHT22;17169;50.966;11.038;2023-03-23T10:52:43;15.90;97.50
30381;DHT22;17169;50.966;11.038;2023-03-23T10:55:46;15.90;97.70
30381;DHT22;17169;50.966;11.038;2023-03-23T10:58:48;15.90;97.60
30381;DHT22;17169;50.966;11.038;2023-03-23T11:01:54;16.00;97.70
30381;DHT22;17169;50.966;11.038;2023-03-23T11:05:00;15.90;96.70
30381;DHT22;17169;50.966;11.038;2023-03-23T11:08:11;16.00;97.20
30381;DHT22;17169;50.966;11.038;2023-03-23T11:11:16;16.10;97.00
30381;DHT22;17169;50.966;11.038;2023-03-23T11:14:24;16.30;96.60
30381;DHT22;17169;50.966;11.038;2023-03-23T11:17:29;16.30;95.90
30381;DHT22;17169;50.966;11.038;2023-03-23T11:20:35;16.40;95.60
30381;DHT22;17169;50.966;11.038;2023-03-23T11:23:40;16.30;95.50
30381;DHT22;17169;50.966;11.038;2023-03-23T11:26:44;16.30;95.60
30381;DHT22;17169;50.966;11.038;2023-03-23T11:29:50;16.30;95.60
30381;DHT22;17169;50.966;11.038;2023-03-23T11:32:59;16.30;95.70
30381;DHT22;17169;50.966;11.038;2023-03-23T11:36:05;16.30;95.90
30381;DHT22;17169;50.966;11.038;2023-03-23T11:39:23;16.20;95.60
30381;DHT22;17169;50.966;11.038;2023-03-23T11:42:36;16.20;95.80
30381;DHT22;17169;50.966;11.038;2023-03-23T11:45:40;16.10;95.70
30381;DHT22;17169;50.966;11.038;2023-03-23T11:48:55;16.10;95.80
30381;DHT22;17169;50.966;11.038;2023-03-23T11:52:05;15.90;96.00
30381;DHT22;17169;50.966;11.038;2023-03-23T11:55:12;15.80;96.50
30381;DHT22;17169;50.966;11.038;2023-03-23T11:58:17;15.80;96.60
30381;DHT22;17169;50.966;11.038;2023-03-23T12:01:29;15.80;96.70
30381;DHT22;17169;50.966;11.038;2023-03-23T12:04:55;15.90;96.90
30381;DHT22;17169;50.966;11.038;2023-03-23T12:08:17;16.00;96.80
30381;DHT22;17169;50.966;11.038;2023-03-23T12:11:32;16.20;96.70
30381;DHT22;17169;50.966;11.038;2023-03-23T12:14:44;16.30;96.60
30381;DHT22;17169;50.966;11.038;2023-03-23T12:17:57;16.20;96.50
30381;DHT22;17169;50.966;11.038;2023-03-23T12:21:08;16.20;96.70
30381;DHT22;17169;50.966;11.038;2023-03-23T12:24:21;16.20;96.80
30381;DHT22;17169;50.966;11.038;2023-03-23T12:27:32;16.50;96.70
30381;DHT22;17169;50.966;11.038;2023-03-23T12:30:39;16.70;96.30
30381;DHT22;17169;50.966;11.038;2023-03-23T12:33:53;16.90;96.10
30381;DHT22;17169;50.966;11.038;2023-03-23T12:37:10;16.90;95.90
30381;DHT22;17169;50.966;11.038;2023-03-23T12:40:41;17.00;96.00
30381;DHT22;17169;50.966;11.038;2023-03-23T12:43:50;17.10;95.20
30381;DHT22;17169;50.966;11.038;2023-03-23T12:47:07;17.00;95.40
30381;DHT22;17169;50.966;11.038;2023-03-23T12:50:16;16.80;95.50
30381;DHT22;17169;50.966;11.038;2023-03-23T12:53:25;16.50;95.90
30381;DHT22;17169;50.966;11.038;2023-03-23T12:56:32;16.40;96.20
30381;DHT22;17169;50.966;11.038;2023-03-23T12:59:41;16.40;96.50
30381;DHT22;17169;50.966;11.038;2023-03-23T13:02:51;16.50;96.60
30381;DHT22;17169;50.966;11.038;2023-03-23T13:06:03;16.50;96.70
30381;DHT22;17169;50.966;11.038;2023-03-23T13:09:12;16.60;96.70
30381;DHT22;17169;50.966;11.038;2023-03-23T13:12:17;16.80;96.80
30381;DHT22;17169;50.966;11.038;2023-03-23T13:18:52;16.90;96.20
30381;DHT22;17169;50.966;11.038;2023-03-23T13:22:04;16.80;96.60
30381;DHT22;17169;50.966;11.038;2023-03-23T13:25:18;16.80;96.60
30381;DHT22;17169;50.966;11.038;2023-03-23T13:28:24;16.70;96.70
30381;DHT22;17169;50.966;11.038;2023-03-23T13:31:30;16.70;97.00
30381;DHT22;17169;50.966;11.038;2023-03-23T13:34:35;16.70;97.00
30381;DHT22;17169;50.966;11.038;2023-03-23T13:37:42;16.70;97.00
30381;DHT22;17169;50.966;11.038;2023-03-23T13:40:49;16.80;96.70
30381;DHT22;17169;50.966;11.038;2023-03-23T13:43:52;16.80;96.80
30381;DHT22;17169;50.966;11.038;2023-03-23T13:46:56;16.60;97.10
30381;DHT22;17169;50.966;11.038;2023-03-23T13:50:00;16.40;97.40
30381;DHT22;17169;50.966;11.038;2023-03-23T13:53:13;16.30;97.60
30381;DHT22;17169;50.966;11.038;2023-03-23T13:56:19;16.20;97.70
30381;DHT22;17169;50.966;11.038;2023-03-23T13:59:34;16.10;97.70
30381;DHT22;17169;50.966;11.038;2023-03-23T14:02:38;16.00;97.70
30381;DHT22;17169;50.966;11.038;2023-03-23T14:05:43;16.00;97.80
30381;DHT22;17169;50.966;11.038;2023-03-23T14:08:49;15.80;98.00
30381;DHT22;17169;50.966;11.038;2023-03-23T14:11:58;15.80;98.10
30381;DHT22;17169;50.966;11.038;2023-03-23T14:15:13;15.70;98.20
30381;DHT22;17169;50.966;11.038;2023-03-23T14:18:16;15.60;98.30
30381;DHT22;17169;50.966;11.038;2023-03-23T14:21:25;15.60;98.40
30381;DHT22;17169;50.966;11.038;2023-03-23T14:24:29;15.50;98.40
30381;DHT22;17169;50.966;11.038;2023-03-23T14:27:34;15.40;98.40
30381;DHT22;17169;50.966;11.038;2023-03-23T14:30:37;15.50;98.50
30381;DHT22;17169;50.966;11.038;2023-03-23T14:33:39;15.40;98.50
30381;DHT22;17169;50.966;11.038;2023-03-23T14:36:43;15.40;98.60
30381;DHT22;17169;50.966;11.038;2023-03-23T14:39:47;15.40;98.70
30381;DHT22;17169;50.966;11.038;2023-03-23T14:42:51;15.70;98.80
30381;DHT22;17169;50.966;11.038;2023-03-23T14:45:58;16.40;98.50
30381;DHT22;17169;50.966;11.038;2023-03-23T14:49:03;17.40;97.10
30381;DHT22;17169;50.966;11.038;2023-03-23T14:52:10;18.40;96.40
30381;DHT22;17169;50.966;11.038;2023-03-23T14:55:16;18.50;95.30
30381;DHT22;17169;50.966;11.038;2023-03-23T14:58:21;19.30;95.00
30381;DHT22;17169;50.966;11.038;2023-03-23T15:01:28;20.20;93.80
30381;DHT22;17169;50.966;11.038;2023-03-23T15:04:30;21.30;92.70
30381;DHT22;17169;50.966;11.038;2023-03-23T15:07:38;22.00;91.40
30381;DHT22;17169;50.966;11.038;2023-03-23T15:10:41;22.90;90.50
30381;DHT22;17169;50.966;11.038;2023-03-23T15:13:47;23.30;90.30
30381;DHT22;17169;50.966;11.038;2023-03-23T15:16:52;24.20;89.20
30381;DHT22;17169;50.966;11.038;2023-03-23T15:19:55;25.10;87.10
30381;DHT22;17169;50.966;11.038;2023-03-23T15:23:07;25.10;85.40
30381;DHT22;17169;50.966;11.038;2023-03-23T15:26:25;25.00;84.30
30381;DHT22;17169;50.966;11.038;2023-03-23T15:29:29;23.70;85.40
30381;DHT22;17169;50.966;11.038;2023-03-23T15:32:38;22.60;87.30
30381;DHT22;17169;50.966;11.038;2023-03-23T15:35:46;21.90;88.80
30381;DHT22;17169;50.966;11.038;2023-03-23T15:38:48;20.90;90.20
30381;DHT22;17169;50.966;11.038;2023-03-23T15:41:52;20.20;90.90
30381;DHT22;17169;50.966;11.038;2023-03-23T15:44:58;19.50;91.70
30381;DHT22;17169;50.966;11.038;2023-03-23T15:48:11;19.20;92.30
30381;DHT22;17169;50.966;11.038;2023-03-23T15:51:13;18.80;92.90
30381;DHT22;17169;50.966;11.038;2023-03-23T15:54:16;18.70;93.20
30381;DHT22;17169;50.966;11.038;2023-03-23T15:57:19;18.60;93.50
30381;DHT22;17169;50.966;11.038;2023-03-23T16:00:24;18.50;93.60
30381;DHT22;17169;50.966;11.038;2023-03-23T16:03:29;18.40;93.80
30381;DHT22;17169;50.966;11.038;2023-03-23T16:06:33;18.40;94.00
30381;DHT22;17169;50.966;11.038;2023-03-23T16:09:36;18.00;94.10
30381;DHT22;17169;50.966;11.038;2023-03-23T16:12:38;17.70;94.60
30381;DHT22;17169;50.966;11.038;2023-03-23T16:15:42;17.60;94.90
30381;DHT22;17169;50.966;11.038;2023-03-23T16:18:44;17.40;95.30
30381;DHT22;17169;50.966;11.038;2023-03-23T16:21:46;17.20;95.30
30381;DHT22;17169;50.966;11.038;2023-03-23T16:24:49;17.10;95.70
30381;DHT22;17169;50.966;11.038;2023-03-23T16:27:51;17.00;95.60
30381;DHT22;17169;50.966;11.038;2023-03-23T16:30:55;16.90;95.70
30381;DHT22;17169;50.966;11.038;2023-03-23T16:33:58;16.70;96.00
30381;DHT22;17169;50.966;11.038;2023-03-23T16:37:00;16.60;96.10
30381;DHT22;17169;50.966;11.038;2023-03-23T16:40:04;16.60;96.20
30381;DHT22;17169;50.966;11.038;2023-03-23T16:43:07;16.50;96.60
30381;DHT22;17169;50.966;11.038;2023-03-23T16:46:12;16.60;96.40
30381;DHT22;17169;50.966;11.038;2023-03-23T16:49:14;16.60;96.40
30381;DHT22;17169;50.966;11.038;2023-03-23T16:52:17;16.60;96.40
30381;DHT22;17169;50.966;11.038;2023-03-23T16:55:19;16.50;96.40
30381;DHT22;17169;50.966;11.038;2023-03-23T16:58:21;16.40;96.80
30381;DHT22;17169;50.966;11.038;2023-03-23T17:01:25;16.40;96.80
30381;DHT22;17169;50.966;11.038;2023-03-23T17:04:28;16.30;96.90
30381;DHT22;17169;50.966;11.038;2023-03-23T17:07:30;16.10;97.20
30381;DHT22;17169;50.966;11.038;2023-03-23T17:10:32;16.00;97.50
30381;DHT22;17169;50.966;11.038;2023-03-23T17:13:35;15.80;97.70
30381;DHT22;17169;50.966;11.038;2023-03-23T17:16:39;15.80;97.90
30381;DHT22;17169;50.966;11.038;2023-03-23T17:19:41;15.70;98.20
30381;DHT22;17169;50.966;11.038;2023-03-23T17:22:43;15.60;98.30
30381;DHT22;17169;50.966;11.038;2023-03-23T17:25:46;15.50;98.80
30381;DHT22;17169;50.966;11.038;2023-03-23T17:28:49;15.30;98.90
30381;DHT22;17169;50.966;11.038;2023-03-23T17:31:53;15.20;99.20
30381;DHT22;17169;50.966;11.038;2023-03-23T17:34:55;15.20;99.50
30381;DHT22;17169;50.966;11.038;2023-03-23T17:37:58;15.10;99.60
30381;DHT22;17169;50.966;11.038;2023-03-23T17:41:01;15.00;99.90
30381;DHT22;17169;50.966;11.038;2023-03-23T17:44:04;14.80;99.90
30381;DHT22;17169;50.966;11.038;2023-03-23T17:47:08;14.80;99.90
30381;DHT22;17169;50.966;11.038;2023-03-23T17:50:10;14.80;99.90
30381;DHT22;17169;50.966;11.038;2023-03-23T17:53:13;14.70;99.90
30381;DHT22;17169;50.966;11.038;2023-03-23T17:56:16;14.50;99.90
30381;DHT22;17169;50.966;11.038;2023-03-23T17:59:19;14.50;99.90
30381;DHT22;17169;50.966;11.038;2023-03-23T18:02:24;14.40;99.90
30381;DHT22;17169;50.966;11.038;2023-03-23T18:05:27;14.40;99.90
30381;DHT22;17169;50.966;11.038;2023-03-23T18:08:29;14.40;99.90
30381;DHT22;17169;50.966;11.038;2023-03-23T18:11:32;14.40;99.90
30381;DHT22;17169;50.966;11.038;2023-03-23T18:14:35;14.50;99.90
30381;DHT22;17169;50.966;11.038;2023-03-23T18:17:41;14.40;99.90
30381;DHT22;17169;50.966;11.038;2023-03-23T18:20:45;14.40;99.90
30381;DHT22;17169;50.966;11.038;2023-03-23T18:23:48;14.40;99.90
30381;DHT22;17169;50.966;11.038;2023-03-23T18:26:51;14.40;99.90
30381;DHT22;17169;50.966;11.038;2023-03-23T18:29:53;14.30;99.90
30381;DHT22;17169;50.966;11.038;2023-03-23T18:32:57;14.30;99.90
30381;DHT22;17169;50.966;11.038;2023-03-23T18:36:00;14.20;99.90
30381;DHT22;17169;50.966;11.038;2023-03-23T18:39:03;14.20;99.90
30381;DHT22;17169;50.966;11.038;2023-03-23T18:42:06;14.20;99.90
30381;DHT22;17169;50.966;11.038;2023-03-23T18:45:08;14.10;99.90
30381;DHT22;17169;50.966;11.038;2023-03-23T18:48:12;14.10;99.90
30381;DHT22;17169;50.966;11.038;2023-03-23T18:51:14;14.10;99.90
30381;DHT22;17169;50.966;11.038;2023-03-23T18:54:17;14.10;99.90
30381;DHT22;17169;50.966;11.038;2023-03-23T18:57:19;14.10;99.90
30381;DHT22;17169;50.966;11.038;2023-03-23T19:00:22;14.00;99.90
30381;DHT22;17169;50.966;11.038;2023-03-23T19:03:26;14.00;99.90
30381;DHT22;17169;50.966;11.038;2023-03-23T19:06:29;14.00;99.90
30381;DHT22;17169;50.966;11.038;2023-03-23T19:09:32;14.00;99.90
30381;DHT22;17169;50.966;11.038;2023-03-23T19:12:35;14.00;99.90
30381;DHT22;17169;50.966;11.038;2023-03-23T19:15:38;14.00;99.90
30381;DHT22;17169;50.966;11.038;2023-03-23T19:18:42;14.00;99.90